Time;durP1;ratioP1;P1;durP2;ratioP2;P2;SDS_P1;SDS_P2;PMS_P1;PMS_P2;Temp;Humidity;BMP_temperature;BMP_pressure;BME280_temperature;BME280_humidity;BME280_pressure;Samples;Min_cycle;Max_cycle;Signal;HPM_P1;HPM_P2
2021/08/20 00:02:03;;;;;;;5.90;5.30;;;18.50;1.00;;;;;;4947797;28;20436;-80
2021/08/20 00:04:30;;;;;;;6.17;5.63;;;18.50;1.00;;;;;;4944719;28;20451;-78
2021/08/20 00:06:57;;;;;;;5.70;4.97;;;18.50;1.00;;;;;;4948287;28;20456;-79
2021/08/20 00:09:24;;;;;;;6.53;5.57;;;18.50;1.00;;;;;;4957857;28;20420;-78
2021/08/20 00:11:51;;;;;;;6.70;4.60;;;18.60;1.00;;;;;;4951610;28;20413;-78
2021/08/20 00:14:18;;;;;;;4.90;4.30;;;18.60;1.00;;;;;;4951722;28;20492;-79
2021/08/20 00:16:47;;;;;;;5.07;4.57;;;18.60;1.00;;;;;;4948702;28;20508;-80
2021/08/20 00:19:14;;;;;;;5.60;5.07;;;18.50;1.00;;;;;;4956224;28;20437;-78
2021/08/20 00:21:41;;;;;;;7.10;4.80;;;18.50;1.00;;;;;;4951043;28;20425;-79
2021/08/20 00:24:10;;;;;;;5.07;4.43;;;18.50;1.00;;;;;;4938375;28;20523;-78
2021/08/20 00:26:37;;;;;;;6.77;5.50;;;18.50;1.00;;;;;;4945517;28;20475;-78
2021/08/20 00:29:03;;;;;;;5.57;5.07;;;18.50;1.00;;;;;;4948990;28;21092;-78
2021/08/20 00:31:31;;;;;;;5.57;5.00;;;18.50;1.00;;;;;;4951149;28;20548;-79
2021/08/20 00:33:59;;;;;;;5.53;4.83;;;18.50;1.00;;;;;;4932892;28;20535;-80
2021/08/20 00:36:27;;;;;;;4.90;4.40;;;18.50;1.00;;;;;;4936234;28;20572;-79
2021/08/20 00:38:54;;;;;;;6.13;5.60;;;18.50;1.00;;;;;;4937416;28;20408;-78
2021/08/20 00:41:20;;;;;;;6.83;6.13;;;18.50;1.00;;;;;;4936605;28;20460;-77
2021/08/20 00:43:47;;;;;;;6.93;6.23;;;18.50;1.00;;;;;;4936442;28;20551;-78
2021/08/20 00:46:14;;;;;;;6.77;6.07;;;18.50;1.00;;;;;;4936654;28;24131;-79
2021/08/20 00:48:41;;;;;;;7.00;6.30;;;18.50;1.00;;;;;;4937286;28;20424;-81
2021/08/20 00:51:15;;;;;;;7.23;6.30;;;18.40;1.00;;;;;;4933161;28;20895;-79
2021/08/20 00:53:42;;;;;;;6.50;5.67;;;18.50;1.00;;;;;;4956678;28;20427;-78
2021/08/20 00:56:09;;;;;;;6.17;5.57;;;18.40;1.00;;;;;;4956696;28;20493;-78
2021/08/20 00:58:36;;;;;;;5.90;5.30;;;18.50;1.00;;;;;;4944816;28;20519;-77
2021/08/20 01:01:04;;;;;;;5.77;5.17;;;18.50;1.00;;;;;;4944203;28;20507;-81
2021/08/20 01:03:32;;;;;;;6.67;5.83;;;18.50;1.00;;;;;;4935665;28;20704;-77
2021/08/20 01:06:00;;;;;;;6.13;5.10;;;18.50;1.00;;;;;;4955578;28;20413;-77
2021/08/20 01:08:30;;;;;;;5.83;4.67;;;18.50;1.00;;;;;;4944030;28;20452;-77
2021/08/20 01:10:59;;;;;;;4.50;4.10;;;18.40;1.00;;;;;;4939053;28;20472;-78
2021/08/20 01:13:27;;;;;;;4.97;4.47;;;18.40;1.00;;;;;;4938226;28;20460;-79
2021/08/20 01:15:54;;;;;;;4.80;4.37;;;18.40;1.00;;;;;;4933742;28;20460;-78
2021/08/20 01:18:26;;;;;;;6.07;5.00;;;18.30;1.00;;;;;;4933887;28;20559;-79
2021/08/20 01:20:53;;;;;;;4.80;4.30;;;18.30;1.00;;;;;;4938321;28;20902;-78
2021/08/20 01:23:22;;;;;;;6.43;4.97;;;18.30;1.00;;;;;;4934918;28;21052;-77
2021/08/20 01:25:50;;;;;;;4.47;3.93;;;18.30;1.00;;;;;;4934869;28;21224;-79
2021/08/20 01:28:17;;;;;;;4.77;4.33;;;18.30;1.00;;;;;;4949174;28;20426;-78
2021/08/20 01:30:46;;;;;;;5.23;4.07;;;18.30;1.00;;;;;;4952417;28;20456;-78
2021/08/20 01:33:16;;;;;;;5.30;4.80;;;18.30;1.00;;;;;;4961000;28;20464;-78
2021/08/20 01:35:43;;;;;;;5.00;4.50;;;18.20;1.00;;;;;;4946689;28;20472;-78
2021/08/20 01:38:10;;;;;;;5.80;4.83;;;18.10;1.00;;;;;;4937816;28;20652;-80
2021/08/20 01:40:37;;;;;;;6.70;5.33;;;18.10;1.00;;;;;;4938906;28;21303;-78
2021/08/20 01:43:04;;;;;;;6.50;4.80;;;18.10;1.00;;;;;;4936748;28;20472;-78
2021/08/20 01:45:31;;;;;;;5.90;4.50;;;18.20;1.00;;;;;;4929121;28;20461;-78
2021/08/20 01:47:58;;;;;;;5.70;4.27;;;18.20;1.00;;;;;;4934223;28;20437;-80
2021/08/20 01:50:24;;;;;;;4.70;4.30;;;18.20;1.00;;;;;;4935898;28;20445;-78
2021/08/20 01:52:51;;;;;;;5.07;4.57;;;18.20;1.00;;;;;;4939055;28;21077;-78
2021/08/20 01:55:18;;;;;;;4.83;3.63;;;18.20;1.00;;;;;;4936024;28;20465;-79
2021/08/20 01:57:45;;;;;;;6.13;5.10;;;18.20;1.00;;;;;;4938994;28;20460;-79
2021/08/20 02:00:15;;;;;;;5.37;4.87;;;18.20;1.00;;;;;;4935579;28;20449;-79
2021/08/20 02:02:42;;;;;;;4.87;4.23;;;18.20;1.00;;;;;;4935181;28;20553;-78
2021/08/20 02:05:10;;;;;;;6.53;5.67;;;18.20;1.00;;;;;;4932744;28;21207;-78
2021/08/20 02:07:36;;;;;;;5.70;4.93;;;18.20;1.00;;;;;;4932026;28;20467;-79
2021/08/20 02:10:05;;;;;;;5.23;4.47;;;18.20;1.00;;;;;;4931408;28;21287;-78
2021/08/20 02:12:32;;;;;;;4.87;3.60;;;18.30;1.00;;;;;;4930250;28;20452;-78
2021/08/20 02:14:59;;;;;;;5.13;4.63;;;18.20;1.00;;;;;;4930653;28;20464;-77
2021/08/20 02:17:27;;;;;;;5.70;4.63;;;18.20;1.00;;;;;;4933654;28;20440;-79
2021/08/20 02:19:54;;;;;;;5.03;4.53;;;18.30;1.00;;;;;;4932549;28;20449;-78
2021/08/20 02:22:21;;;;;;;4.97;4.47;;;18.30;1.00;;;;;;4937805;28;20539;-77
2021/08/20 02:24:49;;;;;;;4.70;4.07;;;18.30;1.00;;;;;;4932315;28;20464;-78
2021/08/20 02:27:16;;;;;;;5.60;4.17;;;18.30;1.00;;;;;;4936513;28;20579;-77
2021/08/20 02:29:42;;;;;;;5.83;4.50;;;18.30;1.00;;;;;;4933196;28;20536;-78
2021/08/20 02:32:09;;;;;;;5.40;4.80;;;18.30;1.00;;;;;;4932983;28;20610;-78
2021/08/20 02:34:37;;;;;;;5.33;3.90;;;18.30;1.00;;;;;;4930918;28;20464;-80
2021/08/20 02:37:04;;;;;;;4.73;3.83;;;18.30;1.00;;;;;;4931183;28;21300;-79
2021/08/20 02:39:33;;;;;;;5.83;4.70;;;18.30;1.00;;;;;;4931437;28;21756;-78
2021/08/20 02:41:59;;;;;;;4.67;4.17;;;18.30;1.00;;;;;;4932213;28;20449;-78
2021/08/20 02:44:26;;;;;;;5.90;4.03;;;18.30;1.00;;;;;;4937416;28;20564;-78
2021/08/20 02:46:53;;;;;;;4.63;4.00;;;18.30;1.00;;;;;;4946155;28;20417;-77
2021/08/20 02:49:19;;;;;;;5.07;4.10;;;18.30;1.00;;;;;;4958532;28;20568;-77
2021/08/20 02:51:47;;;;;;;5.10;4.40;;;18.20;1.00;;;;;;4951515;28;20465;-82
2021/08/20 02:54:14;;;;;;;5.00;4.50;;;18.20;1.00;;;;;;4938560;28;21536;-83
2021/08/20 02:56:41;;;;;;;4.50;4.03;;;18.30;1.00;;;;;;4939858;28;21156;-84
2021/08/20 02:59:07;;;;;;;5.07;4.23;;;18.30;1.00;;;;;;4938252;28;20523;-82
2021/08/20 03:01:34;;;;;;;4.70;4.03;;;18.30;1.00;;;;;;4938553;28;20472;-82
2021/08/20 03:04:01;;;;;;;4.50;3.90;;;18.30;1.00;;;;;;4939173;28;20473;-83
2021/08/20 03:06:29;;;;;;;6.03;4.97;;;18.40;1.00;;;;;;4944672;28;20414;-82
2021/08/20 03:08:57;;;;;;;5.93;4.57;;;18.40;1.00;;;;;;4940692;28;20473;-84
2021/08/20 03:11:24;;;;;;;6.90;4.67;;;18.40;1.00;;;;;;4940941;28;20441;-84
2021/08/20 03:13:51;;;;;;;6.20;5.40;;;18.40;1.00;;;;;;4937044;28;21241;-82
2021/08/20 03:16:17;;;;;;;7.37;5.47;;;18.40;1.00;;;;;;4938483;28;21449;-83
2021/08/20 03:18:44;;;;;;;6.47;5.87;;;18.40;1.00;;;;;;4940614;28;20452;-81
2021/08/20 03:21:12;;;;;;;5.93;4.77;;;18.30;1.00;;;;;;4939246;28;20477;-80
2021/08/20 03:23:39;;;;;;;7.10;5.70;;;18.40;1.00;;;;;;4941185;28;21426;-84
2021/08/20 03:26:07;;;;;;;6.00;5.10;;;18.30;1.00;;;;;;4947226;28;20443;-83
2021/08/20 03:28:34;;;;;;;6.10;5.40;;;18.30;1.00;;;;;;4945694;28;21114;-82
2021/08/20 03:31:00;;;;;;;8.20;5.90;;;18.30;1.00;;;;;;4948444;28;20536;-78
2021/08/20 03:33:27;;;;;;;6.80;5.73;;;18.30;1.00;;;;;;4937015;28;20469;-80
2021/08/20 03:35:54;;;;;;;7.17;5.67;;;18.30;1.00;;;;;;4937395;28;20516;-79
2021/08/20 03:38:21;;;;;;;7.37;6.53;;;18.30;1.00;;;;;;4940428;28;20443;-80
2021/08/20 03:40:49;;;;;;;7.40;6.60;;;18.30;1.00;;;;;;4944717;28;20461;-80
2021/08/20 03:43:17;;;;;;;7.90;7.03;;;18.30;1.00;;;;;;4943610;28;20467;-83
2021/08/20 03:45:44;;;;;;;9.67;6.70;;;18.30;1.00;;;;;;4954219;28;20449;-82
2021/08/20 03:48:12;;;;;;;8.77;7.83;;;18.30;1.00;;;;;;4973549;28;20437;-81
2021/08/20 03:50:38;;;;;;;7.13;5.73;;;18.30;1.00;;;;;;4973627;28;20511;-82
2021/08/20 03:53:05;;;;;;;9.57;7.87;;;18.30;1.00;;;;;;4957143;28;20491;-82
2021/08/20 03:55:33;;;;;;;8.27;6.80;;;18.30;1.00;;;;;;4971432;28;20393;-83
2021/08/20 03:58:00;;;;;;;7.33;6.50;;;18.30;1.00;;;;;;4975533;28;20469;-83
2021/08/20 04:00:28;;;;;;;9.20;8.20;;;18.30;1.00;;;;;;4971414;28;20460;-84
2021/08/20 04:02:55;;;;;;;10.43;7.20;;;18.30;1.00;;;;;;4973192;28;20457;-83
2021/08/20 04:05:23;;;;;;;8.67;7.80;;;18.30;1.00;;;;;;4972485;28;20425;-84
2021/08/20 04:07:49;;;;;;;8.07;7.33;;;18.30;1.00;;;;;;4973995;28;20495;-83
2021/08/20 04:10:16;;;;;;;9.47;8.57;;;18.40;1.00;;;;;;4978703;28;20452;-83
2021/08/20 04:12:43;;;;;;;10.20;8.13;;;18.50;1.00;;;;;;4978646;28;20430;-83
2021/08/20 04:15:11;;;;;;;8.13;7.33;;;18.40;1.00;;;;;;4978804;28;20414;-83
2021/08/20 04:17:39;;;;;;;8.70;7.43;;;18.40;1.00;;;;;;4980658;28;20414;-82
2021/08/20 04:20:07;;;;;;;9.30;7.33;;;18.50;1.00;;;;;;4974965;28;20409;-84
2021/08/20 04:22:35;;;;;;;12.80;10.53;;;18.50;1.00;;;;;;4975235;28;20440;-83
2021/08/20 04:25:02;;;;;;;7.33;6.67;;;18.50;1.00;;;;;;4972418;28;20413;-83
2021/08/20 04:27:29;;;;;;;7.40;6.70;;;18.50;1.00;;;;;;4975872;28;20410;-79
2021/08/20 04:29:56;;;;;;;7.60;6.90;;;18.50;1.00;;;;;;4959966;28;20448;-80
2021/08/20 04:32:23;;;;;;;7.97;7.27;;;18.50;1.00;;;;;;4960249;28;20658;-78
2021/08/20 04:34:51;;;;;;;7.93;6.67;;;18.50;1.00;;;;;;4963891;28;20416;-78
2021/08/20 04:37:23;;;;;;;9.40;7.80;;;18.60;1.00;;;;;;4964803;28;20521;-76
2021/08/20 04:39:50;;;;;;;9.27;6.93;;;18.60;1.00;;;;;;4964512;28;20433;-75
2021/08/20 04:42:17;;;;;;;13.00;11.90;;;18.60;1.00;;;;;;4964665;28;20488;-75
2021/08/20 04:44:43;;;;;;;9.10;7.40;;;18.60;1.00;;;;;;4959589;28;20528;-76
2021/08/20 04:47:10;;;;;;;10.30;8.53;;;18.60;1.00;;;;;;4953012;28;20465;-77
2021/08/20 04:49:38;;;;;;;9.70;8.80;;;18.60;1.00;;;;;;4952675;28;20472;-75
2021/08/20 04:52:07;;;;;;;9.87;7.83;;;18.50;1.00;;;;;;4946452;28;20413;-79
2021/08/20 04:54:34;;;;;;;11.90;8.77;;;18.40;1.00;;;;;;4952431;28;20461;-76
2021/08/20 04:57:01;;;;;;;9.40;8.50;;;18.30;1.00;;;;;;4957323;28;20418;-76
2021/08/20 04:59:27;;;;;;;10.10;7.97;;;18.20;1.00;;;;;;4964489;28;20423;-78
2021/08/20 05:01:55;;;;;;;11.20;8.23;;;18.20;1.00;;;;;;4959664;28;20505;-77
2021/08/20 05:04:21;;;;;;;11.07;8.43;;;18.00;1.00;;;;;;4949027;28;20524;-77
2021/08/20 05:06:49;;;;;;;8.53;7.73;;;18.00;1.00;;;;;;4949549;28;20460;-77
2021/08/20 05:09:17;;;;;;;9.23;8.10;;;17.90;1.00;;;;;;4955088;28;20469;-77
2021/08/20 05:11:44;;;;;;;9.73;8.13;;;17.90;1.00;;;;;;4950742;28;20449;-77
2021/08/20 05:14:11;;;;;;;12.50;9.20;;;17.90;1.00;;;;;;4949443;28;20432;-79
2021/08/20 05:16:38;;;;;;;14.23;9.20;;;17.90;1.00;;;;;;4965102;28;21202;-79
2021/08/20 05:19:05;;;;;;;9.37;8.43;;;17.90;1.00;;;;;;4969564;28;24045;-77
2021/08/20 05:21:31;;;;;;;9.10;8.20;;;17.90;1.00;;;;;;4955505;28;20448;-77
2021/08/20 05:23:58;;;;;;;14.67;9.30;;;17.90;1.00;;;;;;4950452;28;20440;-77
2021/08/20 05:26:27;;;;;;;9.37;8.43;;;17.90;1.00;;;;;;4961465;28;20460;-77
2021/08/20 05:28:54;;;;;;;15.03;8.40;;;17.80;1.00;;;;;;4959412;28;20490;-77
2021/08/20 05:31:21;;;;;;;12.47;9.30;;;17.80;1.00;;;;;;4959665;28;20422;-76
2021/08/20 05:33:48;;;;;;;10.80;9.30;;;17.80;1.00;;;;;;4953131;28;21182;-76
2021/08/20 05:36:14;;;;;;;10.20;8.70;;;17.70;1.00;;;;;;4946797;28;20418;-75
2021/08/20 05:38:41;;;;;;;12.37;11.07;;;17.70;1.00;;;;;;4946431;28;20580;-76
2021/08/20 05:41:08;;;;;;;11.70;10.50;;;17.70;1.00;;;;;;4948054;28;20623;-76
2021/08/20 05:43:36;;;;;;;12.10;8.90;;;17.80;1.00;;;;;;4942265;28;20575;-76
2021/08/20 05:46:03;;;;;;;9.77;8.77;;;17.80;1.00;;;;;;4937792;28;20468;-78
2021/08/20 05:48:30;;;;;;;10.97;9.40;;;17.90;1.00;;;;;;4941187;28;20564;-77
2021/08/20 05:50:58;;;;;;;11.40;9.67;;;17.90;1.00;;;;;;4938685;28;20441;-78
2021/08/20 05:53:25;;;;;;;12.80;11.30;;;17.90;1.00;;;;;;4931310;28;21005;-76
2021/08/20 05:55:52;;;;;;;11.90;9.87;;;17.90;1.00;;;;;;4931423;28;21514;-75
2021/08/20 05:58:19;;;;;;;10.07;8.90;;;18.00;1.00;;;;;;4931380;28;20888;-77
2021/08/20 06:00:49;;;;;;;10.43;8.43;;;18.10;1.00;;;;;;4939567;28;20461;-77
2021/08/20 06:03:20;;;;;;;9.50;8.43;;;18.20;1.00;;;;;;4936057;28;22685;-78
2021/08/20 06:05:47;;;;;;;9.80;8.83;;;18.20;1.00;;;;;;4938613;28;20457;-77
2021/08/20 06:08:15;;;;;;;9.10;8.20;;;18.30;1.00;;;;;;4936089;28;20485;-79
2021/08/20 06:10:44;;;;;;;58.97;48.30;;;18.30;1.00;;;;;;4944103;28;20465;-78
2021/08/20 06:13:11;;;;;;;13.77;10.23;;;18.40;1.00;;;;;;4939719;28;20429;-78
2021/08/20 06:15:38;;;;;;;9.20;8.30;;;18.40;1.00;;;;;;4942550;28;21093;-78
2021/08/20 06:18:07;;;;;;;10.83;9.70;;;18.60;1.00;;;;;;4941275;28;20492;-78
2021/08/20 06:20:34;;;;;;;9.67;8.77;;;18.60;1.00;;;;;;4940899;28;20457;-79
2021/08/20 06:23:01;;;;;;;11.97;9.90;;;18.70;1.00;;;;;;4949977;28;20510;-78
2021/08/20 06:25:27;;;;;;;14.50;9.73;;;18.90;1.00;;;;;;4947131;28;20461;-78
2021/08/20 06:27:54;;;;;;;11.80;9.97;;;19.00;1.00;;;;;;4938700;28;20843;-80
2021/08/20 06:30:21;;;;;;;12.30;10.90;;;19.10;1.00;;;;;;4938982;28;21340;-77
2021/08/20 06:32:47;;;;;;;12.97;11.70;;;19.20;1.00;;;;;;4934538;28;20601;-79
2021/08/20 06:35:15;;;;;;;12.77;11.43;;;19.20;1.00;;;;;;4939680;28;20551;-81
2021/08/20 06:37:42;;;;;;;14.10;12.60;;;19.20;1.00;;;;;;4942317;28;20441;-79
2021/08/20 06:40:10;;;;;;;12.97;11.17;;;19.30;1.00;;;;;;4937747;28;20508;-79
2021/08/20 06:42:37;;;;;;;12.90;11.60;;;19.50;1.00;;;;;;4940378;28;21048;-80
2021/08/20 06:45:05;;;;;;;15.40;12.67;;;19.50;1.00;;;;;;4955047;28;20409;-78
2021/08/20 06:47:32;;;;;;;12.87;11.57;;;19.50;1.00;;;;;;4955903;28;20483;-80
2021/08/20 06:49:59;;;;;;;15.00;13.57;;;19.60;1.00;;;;;;4939402;28;20496;-77
2021/08/20 06:52:29;;;;;;;14.20;12.70;;;19.70;1.00;;;;;;4934019;28;20457;-76
2021/08/20 06:54:58;;;;;;;15.57;13.87;;;19.70;1.00;;;;;;4934901;28;20465;-80
2021/08/20 06:57:25;;;;;;;18.90;15.60;;;19.80;1.00;;;;;;4940277;28;20481;-77
2021/08/20 06:59:51;;;;;;;16.53;14.53;;;19.80;1.00;;;;;;4941805;28;20453;-78
2021/08/20 07:02:18;;;;;;;17.37;15.60;;;19.90;1.00;;;;;;4936990;28;20456;-77
2021/08/20 07:04:45;;;;;;;18.27;16.37;;;20.00;1.00;;;;;;4934919;28;20435;-77
2021/08/20 07:07:12;;;;;;;20.60;18.70;;;20.10;1.00;;;;;;4935324;28;20473;-76
2021/08/20 07:09:42;;;;;;;22.07;18.90;;;20.20;1.00;;;;;;4941539;28;20493;-77
2021/08/20 07:12:09;;;;;;;21.47;19.33;;;20.10;1.00;;;;;;4942980;28;20437;-78
2021/08/20 07:14:36;;;;;;;23.90;21.60;;;20.00;1.00;;;;;;4939473;28;21139;-78
2021/08/20 07:17:03;;;;;;;22.17;19.97;;;20.00;1.00;;;;;;4941854;28;20552;-78
2021/08/20 07:19:30;;;;;;;22.27;19.90;;;19.80;1.00;;;;;;4943755;28;21177;-79
2021/08/20 07:21:58;;;;;;;21.40;19.20;;;19.70;1.00;;;;;;4939887;28;20477;-80
2021/08/20 07:24:24;;;;;;;20.47;18.27;;;19.60;1.00;;;;;;4936633;28;20432;-78
2021/08/20 07:26:52;;;;;;;20.00;17.90;;;19.60;1.00;;;;;;4947918;28;20409;-78
2021/08/20 07:29:19;;;;;;;19.27;17.20;;;19.60;1.00;;;;;;4950882;28;20476;-78
2021/08/20 07:31:46;;;;;;;20.77;18.57;;;19.70;1.00;;;;;;4958814;28;20416;-78
2021/08/20 07:34:13;;;;;;;18.27;16.50;;;19.90;1.00;;;;;;4961317;28;20418;-77
2021/08/20 07:36:39;;;;;;;20.80;18.60;;;20.10;1.00;;;;;;4960358;28;20401;-78
2021/08/20 07:39:06;;;;;;;19.00;17.20;;;20.20;1.00;;;;;;4959995;28;20544;-77
2021/08/20 07:41:33;;;;;;;21.00;18.90;;;20.20;1.00;;;;;;4955701;28;20560;-79
2021/08/20 07:44:01;;;;;;;19.50;17.50;;;20.10;1.00;;;;;;4956685;28;20477;-78
2021/08/20 07:46:28;;;;;;;19.67;17.80;;;20.10;1.00;;;;;;4942294;28;20458;-79
2021/08/20 07:48:55;;;;;;;20.27;18.03;;;20.00;1.00;;;;;;4943980;28;21659;-82
2021/08/20 07:51:22;;;;;;;19.20;17.13;;;20.00;1.00;;;;;;4948009;28;20437;-82
2021/08/20 07:53:49;;;;;;;19.53;17.73;;;20.10;1.00;;;;;;4947456;28;20438;-84
2021/08/20 07:56:16;;;;;;;18.27;16.37;;;20.00;1.00;;;;;;4949220;28;21731;-85
2021/08/20 07:58:42;;;;;;;17.80;16.10;;;20.00;1.00;;;;;;4944355;28;21303;-82
2021/08/20 08:01:12;;;;;;;18.43;16.30;;;19.80;1.00;;;;;;4951391;28;21095;-83
2021/08/20 08:03:40;;;;;;;18.53;16.80;;;19.70;1.00;;;;;;4952241;28;20453;-83
2021/08/20 08:06:11;;;;;;;20.80;18.70;;;19.60;1.00;;;;;;4947996;28;20473;-83
2021/08/20 08:08:38;;;;;;;12.50;10.43;;;19.50;1.00;;;;;;4950566;28;20429;-84
2021/08/20 08:11:06;;;;;;;11.23;10.13;;;19.10;1.00;;;;;;4948010;28;20468;-85
2021/08/20 08:13:33;;;;;;;10.03;9.10;;;18.80;1.00;;;;;;4947681;28;20551;-83
2021/08/20 08:15:59;;;;;;;12.20;11.00;;;18.40;1.00;;;;;;4954230;28;20568;-82
2021/08/20 08:18:28;;;;;;;10.57;9.47;;;18.20;1.00;;;;;;4954273;28;20551;-82
2021/08/20 08:20:57;;;;;;;10.17;9.17;;;18.20;1.00;;;;;;4968520;28;20508;-82
2021/08/20 08:23:27;;;;;;;10.30;9.20;;;18.20;1.00;;;;;;4961305;28;21240;-81
2021/08/20 08:25:55;;;;;;;10.13;9.23;;;18.10;1.00;;;;;;4955206;28;20456;-82
2021/08/20 08:28:23;;;;;;;11.27;9.10;;;18.20;1.00;;;;;;4947591;28;20472;-83
2021/08/20 08:30:51;;;;;;;11.30;9.23;;;18.30;1.00;;;;;;4954351;28;20435;-83
2021/08/20 08:33:21;;;;;;;11.80;8.33;;;18.30;1.00;;;;;;4951316;28;20481;-84
2021/08/20 08:35:49;;;;;;;13.27;11.83;;;18.40;1.00;;;;;;4952675;28;20453;-81
2021/08/20 08:38:16;;;;;;;9.33;7.90;;;18.60;1.00;;;;;;4953408;28;20436;-82
2021/08/20 08:40:46;;;;;;;10.07;9.07;;;18.60;1.00;;;;;;4953960;28;21145;-82
2021/08/20 08:43:13;;;;;;;10.87;9.70;;;18.40;1.00;;;;;;4962062;28;20470;-83
2021/08/20 08:45:45;;;;;;;9.97;9.00;;;18.20;1.00;;;;;;4955758;28;20485;-85
2021/08/20 08:48:15;;;;;;;10.90;9.80;;;18.10;1.00;;;;;;4959846;28;20448;-84
2021/08/20 08:50:48;;;;;;;11.50;10.40;;;18.10;1.00;;;;;;4973844;28;20412;-81
2021/08/20 08:53:19;;;;;;;13.97;10.33;;;18.10;1.00;;;;;;4972377;28;20443;-86
2021/08/20 08:55:50;;;;;;;12.10;10.57;;;18.10;1.00;;;;;;4966343;28;20481;-83
2021/08/20 08:58:17;;;;;;;12.47;10.87;;;18.10;1.00;;;;;;4959331;28;20436;-84
2021/08/20 09:00:51;;;;;;;13.93;11.97;;;18.20;1.00;;;;;;4968029;28;20412;-84
2021/08/20 09:03:26;;;;;;;19.37;16.50;;;18.30;1.00;;;;;;4977277;28;20461;-83
2021/08/20 09:05:55;;;;;;;15.17;12.83;;;18.40;1.00;;;;;;4973643;28;20427;-84
2021/08/20 09:08:27;;;;;;;13.03;11.83;;;18.40;1.00;;;;;;4974084;28;20424;-83
2021/08/20 09:10:56;;;;;;;16.97;13.87;;;18.40;1.00;;;;;;4972295;28;20432;-86
2021/08/20 09:13:24;;;;;;;18.00;15.33;;;18.40;1.00;;;;;;4974273;28;20433;-87
2021/08/20 09:16:07;;;;;;;16.37;14.67;;;18.30;1.00;;;;;;4978398;28;20465;-81
2021/08/20 09:18:34;;;;;;;16.77;15.03;;;18.20;1.00;;;;;;4976404;28;20416;-83
2021/08/20 09:21:03;;;;;;;17.40;15.70;;;18.10;1.00;;;;;;4977427;28;20421;-83
2021/08/20 09:23:32;;;;;;;16.20;14.70;;;18.30;1.00;;;;;;4971510;28;20465;-79
2021/08/20 09:26:00;;;;;;;15.27;13.77;;;18.40;1.00;;;;;;4973513;28;20433;-79
2021/08/20 09:28:29;;;;;;;13.53;12.13;;;18.60;1.00;;;;;;4972049;28;20425;-78
2021/08/20 09:31:13;;;;;;;13.23;11.40;;;18.60;1.00;;;;;;4972055;28;20447;-77
2021/08/20 09:33:49;;;;;;;12.13;10.83;;;18.70;1.00;;;;;;4973076;28;20456;-78
2021/08/20 09:36:18;;;;;;;12.87;10.30;;;18.70;1.00;;;;;;4970284;28;20425;-78
2021/08/20 09:38:50;;;;;;;10.57;9.57;;;18.80;1.00;;;;;;4974986;28;20446;-78
2021/08/20 09:41:25;;;;;;;12.07;10.90;;;18.90;1.00;;;;;;4969356;28;20467;-78
2021/08/20 09:43:56;;;;;;;9.30;8.43;;;19.10;1.00;;;;;;4972388;28;20435;-79
2021/08/20 09:46:23;;;;;;;9.77;8.80;;;19.30;1.00;;;;;;4973209;28;20429;-78
2021/08/20 09:48:53;;;;;;;10.13;9.13;;;19.30;1.00;;;;;;4971065;28;20439;-77
2021/08/20 09:51:44;;;;;;;9.73;8.87;;;19.50;1.00;;;;;;4970048;28;20417;-78
2021/08/20 09:54:15;;;;;;;10.07;9.27;;;19.70;1.00;;;;;;4965847;28;20469;-77
2021/08/20 09:56:44;;;;;;;9.50;8.60;;;19.80;1.00;;;;;;4970243;28;20415;-78
2021/08/20 09:59:12;;;;;;;10.23;9.23;;;19.90;1.00;;;;;;4962860;28;20409;-78
2021/08/20 10:01:41;;;;;;;10.77;9.77;;;20.00;1.00;;;;;;4966281;28;20496;-77
2021/08/20 10:04:09;;;;;;;9.43;8.63;;;20.10;1.00;;;;;;4960623;28;20476;-79
2021/08/20 10:06:37;;;;;;;8.93;8.13;;;20.50;1.00;;;;;;4963083;28;20460;-79
2021/08/20 10:09:07;;;;;;;9.70;8.90;;;20.90;1.00;;;;;;4971837;28;21311;-80
2021/08/20 10:11:41;;;;;;;8.80;7.33;;;21.20;1.00;;;;;;4961553;28;20423;-80
2021/08/20 10:14:09;;;;;;;7.27;6.63;;;21.30;1.00;;;;;;4959432;28;20489;-79
2021/08/20 10:16:37;;;;;;;6.90;6.20;;;21.50;1.00;;;;;;4962425;28;21193;-80
2021/08/20 10:19:06;;;;;;;6.90;6.20;;;21.70;1.00;;;;;;4962715;28;20454;-80
2021/08/20 10:21:34;;;;;;;7.90;6.00;;;21.80;1.00;;;;;;4962527;28;20419;-80
2021/08/20 10:24:02;;;;;;;7.27;6.63;;;22.00;1.00;;;;;;4952900;28;20464;-79
2021/08/20 10:26:30;;;;;;;6.83;6.23;;;22.20;1.00;;;;;;4955245;28;20412;-78
2021/08/20 10:29:00;;;;;;;8.03;7.20;;;22.90;1.00;;;;;;4958091;28;20454;-81
2021/08/20 10:31:27;;;;;;;7.93;7.23;;;23.40;1.00;;;;;;4956673;28;20469;-83
2021/08/20 10:33:54;;;;;;;7.93;7.23;;;23.40;1.00;;;;;;4962566;28;20494;-80
2021/08/20 10:36:39;;;;;;;8.30;6.80;;;23.70;1.00;;;;;;4957334;28;20942;-80
2021/08/20 10:39:08;;;;;;;5.57;4.70;;;24.00;1.00;;;;;;4945481;28;20473;-80
2021/08/20 10:41:35;;;;;;;6.77;6.07;;;24.30;1.00;;;;;;4945222;28;20519;-80
2021/08/20 10:44:05;;;;;;;5.40;4.90;;;25.20;1.00;;;;;;4949782;28;20511;-80
2021/08/20 10:47:00;;;;;;;6.23;4.43;;;25.70;1.00;;;;;;4941297;28;21540;-82
2021/08/20 10:49:29;;;;;;;4.53;4.13;;;26.70;1.00;;;;;;4936614;28;20460;-82
2021/08/20 10:52:00;;;;;;;5.57;5.07;;;28.40;1.00;;;;;;4940174;28;20463;-79
2021/08/20 10:55:06;;;;;;;6.00;5.50;;;29.80;1.00;;;;;;4939444;28;20558;-80
2021/08/20 10:58:02;;;;;;;8.60;5.30;;;30.80;1.00;;;;;;4906530;28;21143;-80
2021/08/20 11:00:31;;;;;;;5.10;4.60;;;32.30;1.00;;;;;;4938362;28;20461;-79
2021/08/20 11:03:00;;;;;;;6.83;5.20;;;33.00;1.00;;;;;;4934224;28;20805;-84
2021/08/20 11:05:54;;;;;;;5.80;5.30;;;32.00;1.00;;;;;;4934733;28;20733;-82
2021/08/20 11:08:34;;;;;;;7.10;6.50;;;30.50;1.00;;;;;;4932061;28;20541;-81
2021/08/20 11:11:02;;;;;;;6.20;5.23;;;29.30;1.00;;;;;;4936477;28;21366;-81
2021/08/20 11:13:30;;;;;;;7.23;6.20;;;28.30;1.00;;;;;;4934393;28;20519;-80
2021/08/20 11:15:59;;;;;;;7.23;5.93;;;27.80;1.00;;;;;;4937876;28;20622;-80
2021/08/20 11:18:47;;;;;;;7.30;6.60;;;27.90;1.00;;;;;;4945645;28;20460;-80
2021/08/20 11:21:43;;;;;;;6.73;6.13;;;27.70;1.00;;;;;;4944435;28;20549;-80
2021/08/20 11:24:12;;;;;;;5.80;5.20;;;28.90;1.00;;;;;;4950038;28;20508;-80
2021/08/20 11:26:40;;;;;;;5.90;5.40;;;30.00;1.00;;;;;;4955438;28;20441;-80
2021/08/20 11:29:10;;;;;;;5.90;5.40;;;31.10;1.00;;;;;;4942736;28;20428;-81
2021/08/20 11:31:38;;;;;;;6.60;6.10;;;30.80;1.00;;;;;;4941859;28;20509;-80
2021/08/20 11:34:06;;;;;;;6.17;5.57;;;30.00;1.00;;;;;;4936430;28;20458;-81
2021/08/20 11:36:33;;;;;;;5.40;4.73;;;29.20;1.00;;;;;;4938630;28;20522;-80
2021/08/20 11:39:02;;;;;;;6.93;5.60;;;30.30;1.00;;;;;;4938641;28;20559;-81
2021/08/20 11:41:36;;;;;;;5.10;4.70;;;32.00;1.00;;;;;;4939205;28;20604;-79
2021/08/20 11:44:06;;;;;;;6.10;5.60;;;33.00;1.00;;;;;;4937241;28;20524;-80
2021/08/20 11:46:39;;;;;;;5.90;5.30;;;34.10;1.00;;;;;;4944486;28;20461;-80
2021/08/20 11:49:07;;;;;;;5.60;5.20;;;34.50;1.00;;;;;;4941074;28;20559;-79
2021/08/20 11:51:36;;;;;;;5.50;5.00;;;32.90;1.00;;;;;;4933419;28;20490;-82
2021/08/20 11:54:05;;;;;;;5.67;5.07;;;31.40;1.00;;;;;;4937655;28;20490;-82
2021/08/20 11:56:32;;;;;;;6.40;5.90;;;30.90;1.00;;;;;;4942903;28;20699;-79
2021/08/20 11:59:09;;;;;;;8.13;7.43;;;29.80;1.00;;;;;;4938785;28;21087;-81
2021/08/20 12:01:39;;;;;;;6.37;5.87;;;28.80;1.00;;;;;;4938842;28;20549;-81
2021/08/20 12:04:07;;;;;;;6.83;6.20;;;28.00;1.00;;;;;;4939160;28;20552;-78
2021/08/20 12:06:39;;;;;;;6.20;5.70;;;27.20;1.00;;;;;;4942384;28;20453;-80
2021/08/20 12:09:10;;;;;;;6.30;5.80;;;26.40;1.00;;;;;;4940026;28;20499;-82
2021/08/20 12:11:38;;;;;;;8.50;7.80;;;25.70;1.00;;;;;;4942117;28;20480;-81
2021/08/20 12:14:05;;;;;;;7.57;6.97;;;24.90;1.00;;;;;;4940519;28;20497;-81
2021/08/20 12:16:40;;;;;;;7.80;7.03;;;24.30;1.00;;;;;;4952033;28;20450;-82
2021/08/20 12:19:18;;;;;;;7.60;6.90;;;23.70;1.00;;;;;;4952938;28;20449;-81
2021/08/20 12:21:48;;;;;;;7.17;6.57;;;23.30;1.00;;;;;;4950124;28;21833;-83
2021/08/20 12:24:16;;;;;;;7.40;6.80;;;23.00;1.00;;;;;;4941288;28;20542;-80
2021/08/20 12:26:46;;;;;;;8.23;7.53;;;22.80;1.00;;;;;;4946043;28;20469;-81
2021/08/20 12:32:03;;;;;;;8.20;7.40;;;22.70;1.00;;;;;;4950204;28;20487;-84
2021/08/20 12:34:32;;;;;;;8.27;7.40;;;22.70;1.00;;;;;;4955150;28;20460;-81
2021/08/20 12:37:03;;;;;;;7.90;6.87;;;22.70;1.00;;;;;;4949564;28;20862;-84
2021/08/20 12:39:35;;;;;;;9.30;8.43;;;22.60;1.00;;;;;;4955739;28;20433;-81
2021/08/20 12:42:23;;;;;;;8.83;8.20;;;22.80;1.00;;;;;;4954947;28;20570;-82
2021/08/20 12:45:06;;;;;;;10.13;9.23;;;23.10;1.00;;;;;;4961391;28;22101;-81
2021/08/20 12:47:35;;;;;;;9.27;8.57;;;23.00;1.00;;;;;;4968083;28;20416;-84
2021/08/20 12:50:04;;;;;;;11.70;10.00;;;23.20;1.00;;;;;;4970196;28;20489;-83
2021/08/20 12:52:31;;;;;;;9.70;9.00;;;23.60;1.00;;;;;;4968375;28;20457;-84
2021/08/20 12:54:58;;;;;;;11.17;10.20;;;24.60;1.00;;;;;;4968191;28;20411;-83
2021/08/20 12:57:25;;;;;;;11.63;10.40;;;25.80;1.00;;;;;;4959734;28;20548;-82
2021/08/20 13:00:02;;;;;;;10.60;9.80;;;27.10;1.00;;;;;;4959342;28;20461;-83
2021/08/20 13:02:30;;;;;;;8.93;8.23;;;28.90;1.00;;;;;;4965277;28;20515;-82